sensor_id;sensor_type;location;lat;lon;timestamp;pressure;altitude;pressure_sealevel;temperature;humidity
40596;BME280;26304;48.794;9.820;2023-03-26T00:01:09;95817.03;;;15.96;48.54
40596;BME280;26304;48.794;9.820;2023-03-26T00:06:53;95807.34;;;16.08;48.30
40596;BME280;26304;48.794;9.820;2023-03-26T00:12:37;95808.84;;;16.05;47.93
40596;BME280;26304;48.794;9.820;2023-03-26T00:18:20;95814.06;;;16.02;48.13
40596;BME280;26304;48.794;9.820;2023-03-26T00:24:06;95807.28;;;15.97;47.94
40596;BME280;26304;48.794;9.820;2023-03-26T00:29:51;95808.09;;;16.05;47.94
40596;BME280;26304;48.794;9.820;2023-03-26T00:35:36;95806.63;;;16.11;48.55
40596;BME280;26304;48.794;9.820;2023-03-26T00:41:21;95810.69;;;16.05;48.59
40596;BME280;26304;48.794;9.820;2023-03-26T00:47:06;95814.47;;;16.04;48.50
40596;BME280;26304;48.794;9.820;2023-03-26T00:52:49;95824.50;;;15.94;48.29
40596;BME280;26304;48.794;9.820;2023-03-26T00:58:32;95817.75;;;15.90;48.18
40596;BME280;26304;48.794;9.820;2023-03-26T01:04:34;95784.78;;;15.89;48.41
40596;BME280;26304;48.794;9.820;2023-03-26T01:10:17;95788.91;;;15.90;48.08
40596;BME280;26304;48.794;9.820;2023-03-26T01:16:05;95782.56;;;15.91;48.07
40596;BME280;26304;48.794;9.820;2023-03-26T01:21:52;95777.31;;;15.94;48.46
40596;BME280;26304;48.794;9.820;2023-03-26T01:27:38;95766.09;;;15.94;48.24
40596;BME280;26304;48.794;9.820;2023-03-26T01:33:26;95763.78;;;15.85;48.15
40596;BME280;26304;48.794;9.820;2023-03-26T01:39:16;95752.56;;;15.85;48.01
40596;BME280;26304;48.794;9.820;2023-03-26T01:45:06;95749.84;;;15.74;48.18
40596;BME280;26304;48.794;9.820;2023-03-26T01:50:50;95731.50;;;15.74;48.23
40596;BME280;26304;48.794;9.820;2023-03-26T01:56:42;95717.72;;;15.77;48.14
40596;BME280;26304;48.794;9.820;2023-03-26T02:02:35;95717.34;;;15.78;48.33
40596;BME280;26304;48.794;9.820;2023-03-26T02:08:23;95705.97;;;15.60;48.25
40596;BME280;26304;48.794;9.820;2023-03-26T02:14:15;95699.25;;;15.59;47.94
40596;BME280;26304;48.794;9.820;2023-03-26T02:19:59;95686.91;;;15.67;48.44
40596;BME280;26304;48.794;9.820;2023-03-26T02:25:47;95670.09;;;15.68;48.43
40596;BME280;26304;48.794;9.820;2023-03-26T02:31:29;95666.38;;;15.69;48.10
40596;BME280;26304;48.794;9.820;2023-03-26T02:37:13;95654.00;;;15.69;47.87
40596;BME280;26304;48.794;9.820;2023-03-26T02:42:58;95640.53;;;15.64;48.37
40596;BME280;26304;48.794;9.820;2023-03-26T02:48:41;95645.00;;;15.67;48.07
40596;BME280;26304;48.794;9.820;2023-03-26T02:54:25;95630.38;;;15.55;48.62
40596;BME280;26304;48.794;9.820;2023-03-26T03:00:08;95625.88;;;15.55;48.41
40596;BME280;26304;48.794;9.820;2023-03-26T03:05:54;95630.38;;;15.55;48.38
40596;BME280;26304;48.794;9.820;2023-03-26T03:11:40;95623.97;;;15.52;47.97
40596;BME280;26304;48.794;9.820;2023-03-26T03:17:23;95612.38;;;15.46;48.01
40596;BME280;26304;48.794;9.820;2023-03-26T03:23:05;95608.25;;;15.45;47.92
40596;BME280;26304;48.794;9.820;2023-03-26T03:28:49;95603.38;;;15.47;47.92
40596;BME280;26304;48.794;9.820;2023-03-26T03:34:32;95606.34;;;15.42;48.20
40596;BME280;26304;48.794;9.820;2023-03-26T03:40:14;95593.63;;;15.44;48.14
40596;BME280;26304;48.794;9.820;2023-03-26T03:45:59;95589.91;;;15.45;47.73
40596;BME280;26304;48.794;9.820;2023-03-26T03:51:41;95584.31;;;15.50;47.47
40596;BME280;26304;48.794;9.820;2023-03-26T03:57:24;95581.69;;;15.50;47.96
40596;BME280;26304;48.794;9.820;2023-03-26T04:03:08;95579.06;;;15.50;48.08
40596;BME280;26304;48.794;9.820;2023-03-26T04:08:54;95559.25;;;15.53;48.00
40596;BME280;26304;48.794;9.820;2023-03-26T04:14:36;95548.03;;;15.52;48.05
40596;BME280;26304;48.794;9.820;2023-03-26T04:20:20;95538.31;;;15.56;47.53
40596;BME280;26304;48.794;9.820;2023-03-26T04:26:05;95539.78;;;15.54;47.73
40596;BME280;26304;48.794;9.820;2023-03-26T04:31:51;95535.31;;;15.54;47.65
40596;BME280;26304;48.794;9.820;2023-03-26T04:37:40;95518.88;;;15.57;48.04
40596;BME280;26304;48.794;9.820;2023-03-26T04:43:24;95504.63;;;15.55;47.59
40596;BME280;26304;48.794;9.820;2023-03-26T04:49:08;95484.41;;;15.55;48.24
40596;BME280;26304;48.794;9.820;2023-03-26T04:54:52;95483.66;;;15.55;48.24
40596;BME280;26304;48.794;9.820;2023-03-26T05:00:34;95466.47;;;15.57;48.32
40596;BME280;26304;48.794;9.820;2023-03-26T05:06:17;95466.47;;;15.61;48.79
40596;BME280;26304;48.794;9.820;2023-03-26T05:12:01;95458.97;;;15.63;48.69
40596;BME280;26304;48.794;9.820;2023-03-26T05:17:44;95448.50;;;15.59;48.58
40596;BME280;26304;48.794;9.820;2023-03-26T05:23:28;95434.31;;;15.60;48.55
40596;BME280;26304;48.794;9.820;2023-03-26T05:29:13;95444.75;;;15.71;48.11
40596;BME280;26304;48.794;9.820;2023-03-26T05:34:56;95413.38;;;15.89;48.00
40596;BME280;26304;48.794;9.820;2023-03-26T05:40:39;95418.59;;;15.93;48.21
40596;BME280;26304;48.794;9.820;2023-03-26T05:46:23;95430.97;;;15.85;48.32
40596;BME280;26304;48.794;9.820;2023-03-26T05:52:05;95423.09;;;15.85;48.51
40596;BME280;26304;48.794;9.820;2023-03-26T05:57:48;95410.72;;;15.86;48.47
40596;BME280;26304;48.794;9.820;2023-03-26T06:03:32;95407.38;;;15.89;48.24
40596;BME280;26304;48.794;9.820;2023-03-26T06:09:15;95397.25;;;15.87;48.08
40596;BME280;26304;48.794;9.820;2023-03-26T06:14:58;95392.78;;;15.91;48.97
40596;BME280;26304;48.794;9.820;2023-03-26T06:20:42;95395.38;;;15.98;49.76
40596;BME280;26304;48.794;9.820;2023-03-26T06:26:25;95384.88;;;16.06;49.72
40596;BME280;26304;48.794;9.820;2023-03-26T06:32:08;95375.16;;;16.13;49.48
40596;BME280;26304;48.794;9.820;2023-03-26T06:37:52;95380.38;;;16.17;49.99
40596;BME280;26304;48.794;9.820;2023-03-26T06:43:34;95371.75;;;16.13;50.33
40596;BME280;26304;48.794;9.820;2023-03-26T06:49:17;95365.00;;;16.23;49.08
40596;BME280;26304;48.794;9.820;2023-03-26T06:55:02;95347.41;;;16.23;49.91
40596;BME280;26304;48.794;9.820;2023-03-26T07:00:46;95334.59;;;16.40;50.22
40596;BME280;26304;48.794;9.820;2023-03-26T07:06:29;95321.13;;;16.38;50.55
40596;BME280;26304;48.794;9.820;2023-03-26T07:12:13;95311.81;;;16.26;49.72
40596;BME280;26304;48.794;9.820;2023-03-26T07:17:55;95311.44;;;16.20;49.94
40596;BME280;26304;48.794;9.820;2023-03-26T07:23:38;95299.09;;;16.17;49.32
40596;BME280;26304;48.794;9.820;2023-03-26T07:29:29;95288.25;;;16.15;49.36
40596;BME280;26304;48.794;9.820;2023-03-26T07:35:19;95264.25;;;16.13;49.67
40596;BME280;26304;48.794;9.820;2023-03-26T07:41:08;95265.78;;;16.10;49.24
40596;BME280;26304;48.794;9.820;2023-03-26T07:46:54;95246.28;;;16.11;49.65
40596;BME280;26304;48.794;9.820;2023-03-26T07:52:38;95233.22;;;16.08;49.12
40596;BME280;26304;48.794;9.820;2023-03-26T07:58:38;95224.50;;;16.25;50.27
40596;BME280;26304;48.794;9.820;2023-03-26T08:04:46;95222.19;;;16.38;50.40
40596;BME280;26304;48.794;9.820;2023-03-26T08:10:41;95204.91;;;16.51;50.21
40596;BME280;26304;48.794;9.820;2023-03-26T08:16:33;95200.38;;;16.56;50.78
40596;BME280;26304;48.794;9.820;2023-03-26T08:22:22;95205.97;;;16.61;50.55
40596;BME280;26304;48.794;9.820;2023-03-26T08:28:15;95204.81;;;16.66;52.16
40596;BME280;26304;48.794;9.820;2023-03-26T08:34:01;95195.38;;;16.76;51.76
40596;BME280;26304;48.794;9.820;2023-03-26T08:39:45;95187.03;;;16.84;51.34
40596;BME280;26304;48.794;9.820;2023-03-26T08:45:42;95191.94;;;16.86;51.90
40596;BME280;26304;48.794;9.820;2023-03-26T08:52:10;95173.56;;;16.86;51.22
40596;BME280;26304;48.794;9.820;2023-03-26T09:04:52;95160.47;;;16.79;51.63
40596;BME280;26304;48.794;9.820;2023-03-26T09:11:12;95146.84;;;16.98;51.59
40596;BME280;26304;48.794;9.820;2023-03-26T09:17:32;95137.81;;;17.03;51.77
40596;BME280;26304;48.794;9.820;2023-03-26T09:29:59;95128.81;;;17.00;51.69
40596;BME280;26304;48.794;9.820;2023-03-26T09:35:53;95127.69;;;17.01;51.62
40596;BME280;26304;48.794;9.820;2023-03-26T09:41:41;95118.56;;;17.13;51.32
40596;BME280;26304;48.794;9.820;2023-03-26T09:47:51;95121.16;;;17.17;51.44
40596;BME280;26304;48.794;9.820;2023-03-26T09:53:48;95124.16;;;17.19;51.24
40596;BME280;26304;48.794;9.820;2023-03-26T09:59:50;95112.84;;;17.22;51.30
40596;BME280;26304;48.794;9.820;2023-03-26T10:05:46;95105.94;;;17.35;51.05
40596;BME280;26304;48.794;9.820;2023-03-26T10:11:41;95113.06;;;17.38;51.33
40596;BME280;26304;48.794;9.820;2023-03-26T10:17:45;95104.72;;;17.43;50.98
40596;BME280;26304;48.794;9.820;2023-03-26T10:30:06;95090.63;;;17.65;51.88
40596;BME280;26304;48.794;9.820;2023-03-26T10:36:14;95095.91;;;17.61;51.59
40596;BME280;26304;48.794;9.820;2023-03-26T10:42:10;95094.59;;;17.46;51.71
40596;BME280;26304;48.794;9.820;2023-03-26T10:48:23;95098.13;;;17.32;51.72
40596;BME280;26304;48.794;9.820;2023-03-26T10:54:14;95089.34;;;17.42;51.95
40596;BME280;26304;48.794;9.820;2023-03-26T11:00:14;95084.94;;;17.35;52.16
40596;BME280;26304;48.794;9.820;2023-03-26T11:06:04;95087.91;;;17.37;52.32
40596;BME280;26304;48.794;9.820;2023-03-26T11:11:53;95087.13;;;17.40;52.43
40596;BME280;26304;48.794;9.820;2023-03-26T11:17:45;95079.63;;;17.42;51.99
40596;BME280;26304;48.794;9.820;2023-03-26T11:23:34;95088.63;;;17.41;52.37
40596;BME280;26304;48.794;9.820;2023-03-26T11:29:32;95080.97;;;17.54;52.59
40596;BME280;26304;48.794;9.820;2023-03-26T11:35:20;95082.47;;;17.52;53.71
40596;BME280;26304;48.794;9.820;2023-03-26T11:41:11;95078.72;;;17.53;53.67
40596;BME280;26304;48.794;9.820;2023-03-26T11:46:58;95064.28;;;17.68;53.59
40596;BME280;26304;48.794;9.820;2023-03-26T11:52:44;95040.19;;;17.73;53.43
40596;BME280;26304;48.794;9.820;2023-03-26T11:58:30;95032.59;;;17.79;53.37
40596;BME280;26304;48.794;9.820;2023-03-26T12:04:16;95032.53;;;17.83;54.24
40596;BME280;26304;48.794;9.820;2023-03-26T12:10:01;95033.97;;;17.91;53.39
40596;BME280;26304;48.794;9.820;2023-03-26T12:15:44;95016.47;;;18.04;54.16
40596;BME280;26304;48.794;9.820;2023-03-26T12:21:43;95018.69;;;18.06;54.05
40596;BME280;26304;48.794;9.820;2023-03-26T12:27:26;95022.44;;;18.08;55.03
40596;BME280;26304;48.794;9.820;2023-03-26T12:33:14;95017.63;;;18.03;53.29
40596;BME280;26304;48.794;9.820;2023-03-26T12:38:59;95012.53;;;17.92;53.43
40596;BME280;26304;48.794;9.820;2023-03-26T12:44:44;95012.94;;;17.91;52.83
40596;BME280;26304;48.794;9.820;2023-03-26T12:50:32;95008.56;;;17.81;53.05
40596;BME280;26304;48.794;9.820;2023-03-26T12:56:25;95040.19;;;17.73;52.73
40596;BME280;26304;48.794;9.820;2023-03-26T13:02:41;95046.34;;;17.63;52.84
40596;BME280;26304;48.794;9.820;2023-03-26T13:08:44;95037.78;;;17.55;52.98
40596;BME280;26304;48.794;9.820;2023-03-26T13:15:00;95034.06;;;17.53;53.64
40596;BME280;26304;48.794;9.820;2023-03-26T13:20:48;95023.03;;;17.65;54.17
40596;BME280;26304;48.794;9.820;2023-03-26T13:26:45;95012.88;;;17.94;52.50
40596;BME280;26304;48.794;9.820;2023-03-26T13:32:41;94995.56;;;17.97;54.38
40596;BME280;26304;48.794;9.820;2023-03-26T13:38:35;94990.06;;;18.11;53.69
40596;BME280;26304;48.794;9.820;2023-03-26T13:44:29;94979.22;;;18.09;53.49
40596;BME280;26304;48.794;9.820;2023-03-26T13:50:20;94965.25;;;18.12;53.89
40596;BME280;26304;48.794;9.820;2023-03-26T13:56:09;94964.56;;;18.08;53.74
40596;BME280;26304;48.794;9.820;2023-03-26T14:01:58;94961.94;;;18.08;53.75
40596;BME280;26304;48.794;9.820;2023-03-26T14:07:47;94952.56;;;18.07;53.78
40596;BME280;26304;48.794;9.820;2023-03-26T14:13:37;94954.69;;;18.16;53.33
40596;BME280;26304;48.794;9.820;2023-03-26T14:19:43;94939.63;;;18.17;53.66
40596;BME280;26304;48.794;9.820;2023-03-26T14:25:43;94926.78;;;18.22;53.45
40596;BME280;26304;48.794;9.820;2023-03-26T14:31:29;94930.84;;;18.27;52.70
40596;BME280;26304;48.794;9.820;2023-03-26T14:37:35;94914.63;;;18.28;52.71
40596;BME280;26304;48.794;9.820;2023-03-26T14:56:14;94918.41;;;18.27;53.12
40596;BME280;26304;48.794;9.820;2023-03-26T15:15:24;94938.34;;;18.68;52.62
40596;BME280;26304;48.794;9.820;2023-03-26T15:27:54;94992.16;;;18.24;52.13
40596;BME280;26304;48.794;9.820;2023-03-26T15:33:59;95013.69;;;18.39;51.97
40596;BME280;26304;48.794;9.820;2023-03-26T15:46:24;95014.41;;;18.39;51.05
40596;BME280;26304;48.794;9.820;2023-03-26T15:52:18;95007.63;;;18.42;52.70
40596;BME280;26304;48.794;9.820;2023-03-26T15:58:08;94994.06;;;18.43;52.15
40596;BME280;26304;48.794;9.820;2023-03-26T16:03:59;95006.75;;;18.48;51.54
40596;BME280;26304;48.794;9.820;2023-03-26T16:09:54;95023.16;;;18.56;51.99
40596;BME280;26304;48.794;9.820;2023-03-26T16:15:40;95017.97;;;18.52;51.73
40596;BME280;26304;48.794;9.820;2023-03-26T16:21:38;95019.09;;;18.51;52.92
40596;BME280;26304;48.794;9.820;2023-03-26T16:27:27;95020.16;;;18.34;53.56
40596;BME280;26304;48.794;9.820;2023-03-26T16:33:13;95019.44;;;18.30;52.99
40596;BME280;26304;48.794;9.820;2023-03-26T16:39:11;95020.28;;;18.27;53.23
40596;BME280;26304;48.794;9.820;2023-03-26T16:45:09;95030.38;;;18.28;53.23
40596;BME280;26304;48.794;9.820;2023-03-26T16:50:56;95037.28;;;18.19;52.74
40596;BME280;26304;48.794;9.820;2023-03-26T16:56:44;95035.81;;;18.18;53.09
40596;BME280;26304;48.794;9.820;2023-03-26T17:02:32;95032.94;;;18.08;51.70
40596;BME280;26304;48.794;9.820;2023-03-26T17:08:17;95051.03;;;18.06;51.68
40596;BME280;26304;48.794;9.820;2023-03-26T17:14:14;95051.84;;;18.00;52.03
40596;BME280;26304;48.794;9.820;2023-03-26T17:20:10;95068.13;;;17.91;50.70
40596;BME280;26304;48.794;9.820;2023-03-26T17:26:03;95065.94;;;17.86;51.38
40596;BME280;26304;48.794;9.820;2023-03-26T17:31:55;95078.41;;;17.78;51.74
40596;BME280;26304;48.794;9.820;2023-03-26T17:37:43;95081.88;;;17.71;50.85
40596;BME280;26304;48.794;9.820;2023-03-26T17:43:45;95091.69;;;17.67;51.65
40596;BME280;26304;48.794;9.820;2023-03-26T17:49:30;95085.00;;;17.63;50.75
40596;BME280;26304;48.794;9.820;2023-03-26T17:55:17;95080.66;;;17.79;52.15
40596;BME280;26304;48.794;9.820;2023-03-26T18:01:06;95085.81;;;17.87;52.76
40596;BME280;26304;48.794;9.820;2023-03-26T18:07:04;95084.94;;;17.97;51.84
40596;BME280;26304;48.794;9.820;2023-03-26T18:13:07;95088.78;;;17.92;52.18
40596;BME280;26304;48.794;9.820;2023-03-26T18:18:57;95090.31;;;17.86;51.83
40596;BME280;26304;48.794;9.820;2023-03-26T18:24:40;95088.81;;;17.85;51.91
40596;BME280;26304;48.794;9.820;2023-03-26T18:30:27;95100.09;;;17.86;51.07
40596;BME280;26304;48.794;9.820;2023-03-26T18:36:10;95100.81;;;17.90;51.14
40596;BME280;26304;48.794;9.820;2023-03-26T18:41:54;95111.41;;;17.83;51.73
40596;BME280;26304;48.794;9.820;2023-03-26T18:47:38;95113.69;;;17.81;51.29
40596;BME280;26304;48.794;9.820;2023-03-26T18:53:23;95108.00;;;17.86;50.56
40596;BME280;26304;48.794;9.820;2023-03-26T18:59:19;95108.78;;;17.83;50.48
40596;BME280;26304;48.794;9.820;2023-03-26T19:05:05;95100.84;;;17.86;50.63
40596;BME280;26304;48.794;9.820;2023-03-26T19:10:49;95087.03;;;17.78;51.04
40596;BME280;26304;48.794;9.820;2023-03-26T19:16:33;95073.09;;;17.82;50.81
40596;BME280;26304;48.794;9.820;2023-03-26T19:22:20;95068.13;;;16.95;49.74
40596;BME280;26304;48.794;9.820;2023-03-26T19:28:04;95057.19;;;16.58;50.18
40596;BME280;26304;48.794;9.820;2023-03-26T19:33:53;95050.75;;;16.21;49.21
40596;BME280;26304;48.794;9.820;2023-03-26T19:39:39;95053.38;;;16.66;49.28
40596;BME280;26304;48.794;9.820;2023-03-26T19:45:23;95045.31;;;16.43;49.64
40596;BME280;26304;48.794;9.820;2023-03-26T19:51:17;95052.72;;;16.10;49.35
40596;BME280;26304;48.794;9.820;2023-03-26T19:57:03;95054.72;;;15.84;49.82
40596;BME280;26304;48.794;9.820;2023-03-26T20:02:46;95056.75;;;16.18;49.75
40596;BME280;26304;48.794;9.820;2023-03-26T20:08:29;95048.19;;;15.43;50.14
40596;BME280;26304;48.794;9.820;2023-03-26T20:14:15;95053.28;;;16.32;48.80
40596;BME280;26304;48.794;9.820;2023-03-26T20:19:57;95051.94;;;16.58;48.72
40596;BME280;26304;48.794;9.820;2023-03-26T20:25:45;95044.75;;;16.66;48.72
40596;BME280;26304;48.794;9.820;2023-03-26T20:31:31;95054.09;;;16.70;48.68
40596;BME280;26304;48.794;9.820;2023-03-26T20:37:14;95054.81;;;16.71;49.42
40596;BME280;26304;48.794;9.820;2023-03-26T20:42:56;95052.94;;;16.71;49.29
40596;BME280;26304;48.794;9.820;2023-03-26T20:48:40;95049.56;;;16.71;49.54
40596;BME280;26304;48.794;9.820;2023-03-26T20:54:24;95061.56;;;16.72;49.68
40596;BME280;26304;48.794;9.820;2023-03-26T21:00:09;95050.31;;;16.71;49.73
40596;BME280;26304;48.794;9.820;2023-03-26T21:05:59;95050.31;;;16.71;49.70
40596;BME280;26304;48.794;9.820;2023-03-26T21:11:49;95054.06;;;16.74;49.63
40596;BME280;26304;48.794;9.820;2023-03-26T21:17:33;95057.78;;;16.73;49.86
40596;BME280;26304;48.794;9.820;2023-03-26T21:23:21;95060.81;;;16.71;49.98
40596;BME280;26304;48.794;9.820;2023-03-26T21:29:07;95069.78;;;16.74;49.93
40596;BME280;26304;48.794;9.820;2023-03-26T21:34:50;95071.66;;;16.74;49.68
40596;BME280;26304;48.794;9.820;2023-03-26T21:40:35;95063.03;;;16.73;49.77
40596;BME280;26304;48.794;9.820;2023-03-26T21:46:18;95062.31;;;16.73;50.14
40596;BME280;26304;48.794;9.820;2023-03-26T21:52:01;95067.56;;;16.73;49.71
40596;BME280;26304;48.794;9.820;2023-03-26T21:58:18;95072.81;;;16.73;50.00
40596;BME280;26304;48.794;9.820;2023-03-26T22:04:07;95073.19;;;16.71;49.63
40596;BME280;26304;48.794;9.820;2023-03-26T22:09:53;95065.31;;;16.71;50.49
40596;BME280;26304;48.794;9.820;2023-03-26T22:15:37;95067.22;;;16.70;49.95
40596;BME280;26304;48.794;9.820;2023-03-26T22:21:19;95072.84;;;16.69;49.82
40596;BME280;26304;48.794;9.820;2023-03-26T22:27:03;95076.19;;;16.69;50.07
40596;BME280;26304;48.794;9.820;2023-03-26T22:32:47;95081.09;;;16.67;50.16
40596;BME280;26304;48.794;9.820;2023-03-26T22:38:30;95090.09;;;16.66;50.21
40596;BME280;26304;48.794;9.820;2023-03-26T22:44:12;95095.34;;;16.66;50.15
40596;BME280;26304;48.794;9.820;2023-03-26T22:49:58;95093.84;;;16.65;50.66
40596;BME280;26304;48.794;9.820;2023-03-26T22:55:41;95099.09;;;16.65;50.28
40596;BME280;26304;48.794;9.820;2023-03-26T23:01:24;95105.88;;;16.63;50.35
40596;BME280;26304;48.794;9.820;2023-03-26T23:07:08;95106.25;;;16.61;50.50
40596;BME280;26304;48.794;9.820;2023-03-26T23:12:51;95113.38;;;16.61;50.32
40596;BME280;26304;48.794;9.820;2023-03-26T23:18:33;95107.38;;;16.60;50.50
40596;BME280;26304;48.794;9.820;2023-03-26T23:24:18;95109.28;;;16.60;50.52
40596;BME280;26304;48.794;9.820;2023-03-26T23:30:01;95111.13;;;16.59;50.55
40596;BME280;26304;48.794;9.820;2023-03-26T23:35:44;95111.16;;;16.56;50.59
40596;BME280;26304;48.794;9.820;2023-03-26T23:41:29;95115.28;;;16.57;50.70
40596;BME280;26304;48.794;9.820;2023-03-26T23:47:11;95122.81;;;16.51;51.09
40596;BME280;26304;48.794;9.820;2023-03-26T23:52:57;95123.19;;;16.53;51.06
40596;BME280;26304;48.794;9.820;2023-03-26T23:58:41;95126.94;;;16.52;50.52
